sensor_id;sensor_type;location;lat;lon;timestamp;P1;durP1;ratioP1;P2;durP2;ratioP2
9160;SDS011;4615;51.340;8.288;2022-09-19T00:00:55;6.83;;;2.80;;
9160;SDS011;4615;51.340;8.288;2022-09-19T00:03:31;6.50;;;2.77;;
9160;SDS011;4615;51.340;8.288;2022-09-19T00:05:58;10.43;;;3.13;;
9160;SDS011;4615;51.340;8.288;2022-09-19T00:08:24;6.60;;;3.07;;
9160;SDS011;4615;51.340;8.288;2022-09-19T00:10:51;5.97;;;2.70;;
9160;SDS011;4615;51.340;8.288;2022-09-19T00:13:17;10.77;;;2.87;;
9160;SDS011;4615;51.340;8.288;2022-09-19T00:15:47;8.13;;;2.97;;
9160;SDS011;4615;51.340;8.288;2022-09-19T00:18:14;8.93;;;3.00;;
9160;SDS011;4615;51.340;8.288;2022-09-19T00:20:40;10.57;;;3.13;;
9160;SDS011;4615;51.340;8.288;2022-09-19T00:23:08;11.77;;;3.33;;
9160;SDS011;4615;51.340;8.288;2022-09-19T00:26:01;12.20;;;3.30;;
9160;SDS011;4615;51.340;8.288;2022-09-19T00:28:28;9.70;;;2.60;;
9160;SDS011;4615;51.340;8.288;2022-09-19T00:30:56;11.57;;;3.53;;
9160;SDS011;4615;51.340;8.288;2022-09-19T00:33:23;7.87;;;2.90;;
9160;SDS011;4615;51.340;8.288;2022-09-19T00:35:55;7.13;;;3.13;;
9160;SDS011;4615;51.340;8.288;2022-09-19T00:38:22;11.90;;;2.90;;
9160;SDS011;4615;51.340;8.288;2022-09-19T00:40:49;10.20;;;3.00;;
9160;SDS011;4615;51.340;8.288;2022-09-19T00:43:16;9.00;;;3.13;;
9160;SDS011;4615;51.340;8.288;2022-09-19T00:45:43;14.73;;;3.47;;
9160;SDS011;4615;51.340;8.288;2022-09-19T00:48:11;8.77;;;3.13;;
9160;SDS011;4615;51.340;8.288;2022-09-19T00:50:38;11.40;;;3.10;;
9160;SDS011;4615;51.340;8.288;2022-09-19T00:53:06;8.33;;;3.43;;
9160;SDS011;4615;51.340;8.288;2022-09-19T00:55:33;7.90;;;2.77;;
9160;SDS011;4615;51.340;8.288;2022-09-19T00:58:02;12.33;;;3.40;;
9160;SDS011;4615;51.340;8.288;2022-09-19T01:00:31;7.00;;;2.67;;
9160;SDS011;4615;51.340;8.288;2022-09-19T01:02:59;13.00;;;3.20;;
9160;SDS011;4615;51.340;8.288;2022-09-19T01:05:28;10.27;;;3.40;;
9160;SDS011;4615;51.340;8.288;2022-09-19T01:07:59;9.27;;;2.87;;
9160;SDS011;4615;51.340;8.288;2022-09-19T01:10:32;9.97;;;2.90;;
9160;SDS011;4615;51.340;8.288;2022-09-19T01:13:04;11.20;;;3.73;;
9160;SDS011;4615;51.340;8.288;2022-09-19T01:15:37;11.60;;;3.53;;
9160;SDS011;4615;51.340;8.288;2022-09-19T01:18:05;12.80;;;4.10;;
9160;SDS011;4615;51.340;8.288;2022-09-19T01:20:38;13.33;;;3.67;;
9160;SDS011;4615;51.340;8.288;2022-09-19T01:23:23;9.43;;;4.27;;
9160;SDS011;4615;51.340;8.288;2022-09-19T01:25:53;12.17;;;3.50;;
9160;SDS011;4615;51.340;8.288;2022-09-19T01:28:24;12.57;;;4.07;;
9160;SDS011;4615;51.340;8.288;2022-09-19T01:30:54;10.43;;;3.87;;
9160;SDS011;4615;51.340;8.288;2022-09-19T01:33:35;9.27;;;3.40;;
9160;SDS011;4615;51.340;8.288;2022-09-19T01:36:04;12.47;;;4.23;;
9160;SDS011;4615;51.340;8.288;2022-09-19T01:38:31;11.90;;;3.90;;
9160;SDS011;4615;51.340;8.288;2022-09-19T01:41:04;10.93;;;4.37;;
9160;SDS011;4615;51.340;8.288;2022-09-19T01:43:34;10.30;;;4.10;;
9160;SDS011;4615;51.340;8.288;2022-09-19T01:46:02;16.63;;;4.00;;
9160;SDS011;4615;51.340;8.288;2022-09-19T01:48:34;9.43;;;3.97;;
9160;SDS011;4615;51.340;8.288;2022-09-19T01:51:06;12.60;;;4.47;;
9160;SDS011;4615;51.340;8.288;2022-09-19T01:53:39;16.10;;;4.77;;
9160;SDS011;4615;51.340;8.288;2022-09-19T01:56:14;12.93;;;4.97;;
9160;SDS011;4615;51.340;8.288;2022-09-19T01:58:44;14.60;;;4.47;;
9160;SDS011;4615;51.340;8.288;2022-09-19T02:01:15;13.10;;;4.30;;
9160;SDS011;4615;51.340;8.288;2022-09-19T02:03:44;16.60;;;4.93;;
9160;SDS011;4615;51.340;8.288;2022-09-19T02:06:13;14.57;;;4.43;;
9160;SDS011;4615;51.340;8.288;2022-09-19T02:08:45;11.17;;;4.60;;
9160;SDS011;4615;51.340;8.288;2022-09-19T02:11:13;10.93;;;5.23;;
9160;SDS011;4615;51.340;8.288;2022-09-19T02:13:41;17.40;;;5.33;;
9160;SDS011;4615;51.340;8.288;2022-09-19T02:16:12;18.80;;;5.37;;
9160;SDS011;4615;51.340;8.288;2022-09-19T02:18:39;12.00;;;5.30;;
9160;SDS011;4615;51.340;8.288;2022-09-19T02:21:09;15.73;;;5.47;;
9160;SDS011;4615;51.340;8.288;2022-09-19T02:23:37;14.83;;;6.20;;
9160;SDS011;4615;51.340;8.288;2022-09-19T02:26:07;15.00;;;6.07;;
9160;SDS011;4615;51.340;8.288;2022-09-19T02:28:35;14.90;;;5.80;;
9160;SDS011;4615;51.340;8.288;2022-09-19T02:31:04;17.50;;;6.27;;
9160;SDS011;4615;51.340;8.288;2022-09-19T02:33:32;12.97;;;6.40;;
9160;SDS011;4615;51.340;8.288;2022-09-19T02:36:03;19.50;;;7.33;;
9160;SDS011;4615;51.340;8.288;2022-09-19T02:38:32;18.53;;;6.90;;
9160;SDS011;4615;51.340;8.288;2022-09-19T02:41:01;15.43;;;6.70;;
9160;SDS011;4615;51.340;8.288;2022-09-19T02:43:31;15.47;;;8.10;;
9160;SDS011;4615;51.340;8.288;2022-09-19T02:46:03;14.87;;;7.13;;
9160;SDS011;4615;51.340;8.288;2022-09-19T02:48:35;15.93;;;7.63;;
9160;SDS011;4615;51.340;8.288;2022-09-19T02:51:06;16.30;;;7.33;;
9160;SDS011;4615;51.340;8.288;2022-09-19T02:53:35;16.50;;;7.47;;
9160;SDS011;4615;51.340;8.288;2022-09-19T02:56:03;14.83;;;7.27;;
9160;SDS011;4615;51.340;8.288;2022-09-19T02:58:33;19.10;;;7.37;;
9160;SDS011;4615;51.340;8.288;2022-09-19T03:01:01;15.17;;;7.57;;
9160;SDS011;4615;51.340;8.288;2022-09-19T03:03:29;15.10;;;7.77;;
9160;SDS011;4615;51.340;8.288;2022-09-19T03:06:16;16.07;;;7.27;;
9160;SDS011;4615;51.340;8.288;2022-09-19T03:08:44;17.30;;;6.50;;
9160;SDS011;4615;51.340;8.288;2022-09-19T03:11:14;23.17;;;7.47;;
9160;SDS011;4615;51.340;8.288;2022-09-19T03:13:42;14.00;;;7.20;;
9160;SDS011;4615;51.340;8.288;2022-09-19T03:16:09;13.60;;;7.57;;
9160;SDS011;4615;51.340;8.288;2022-09-19T03:18:38;13.37;;;7.23;;
9160;SDS011;4615;51.340;8.288;2022-09-19T03:21:09;16.97;;;7.83;;
9160;SDS011;4615;51.340;8.288;2022-09-19T03:23:38;9.87;;;6.13;;
9160;SDS011;4615;51.340;8.288;2022-09-19T03:26:05;15.30;;;7.50;;
9160;SDS011;4615;51.340;8.288;2022-09-19T03:28:34;13.10;;;6.67;;
9160;SDS011;4615;51.340;8.288;2022-09-19T03:31:00;12.27;;;6.13;;
9160;SDS011;4615;51.340;8.288;2022-09-19T03:33:26;12.47;;;6.13;;
9160;SDS011;4615;51.340;8.288;2022-09-19T03:35:53;15.17;;;6.60;;
9160;SDS011;4615;51.340;8.288;2022-09-19T03:38:21;13.20;;;7.90;;
9160;SDS011;4615;51.340;8.288;2022-09-19T03:40:49;9.80;;;5.60;;
9160;SDS011;4615;51.340;8.288;2022-09-19T03:43:15;14.20;;;6.23;;
9160;SDS011;4615;51.340;8.288;2022-09-19T03:45:44;15.77;;;6.57;;
9160;SDS011;4615;51.340;8.288;2022-09-19T03:48:10;14.10;;;6.90;;
9160;SDS011;4615;51.340;8.288;2022-09-19T03:50:37;18.13;;;6.90;;
9160;SDS011;4615;51.340;8.288;2022-09-19T03:53:03;14.50;;;7.03;;
9160;SDS011;4615;51.340;8.288;2022-09-19T03:55:32;16.70;;;6.93;;
9160;SDS011;4615;51.340;8.288;2022-09-19T03:58:00;18.17;;;7.07;;
9160;SDS011;4615;51.340;8.288;2022-09-19T04:00:26;17.80;;;6.93;;
9160;SDS011;4615;51.340;8.288;2022-09-19T04:02:53;10.57;;;6.80;;
9160;SDS011;4615;51.340;8.288;2022-09-19T04:05:21;17.47;;;7.23;;
9160;SDS011;4615;51.340;8.288;2022-09-19T04:07:48;13.43;;;7.17;;
9160;SDS011;4615;51.340;8.288;2022-09-19T04:10:15;12.77;;;7.50;;
9160;SDS011;4615;51.340;8.288;2022-09-19T04:12:42;18.37;;;7.20;;
9160;SDS011;4615;51.340;8.288;2022-09-19T04:15:09;17.30;;;7.00;;
9160;SDS011;4615;51.340;8.288;2022-09-19T04:17:36;21.00;;;7.00;;
9160;SDS011;4615;51.340;8.288;2022-09-19T04:20:03;12.90;;;7.07;;
9160;SDS011;4615;51.340;8.288;2022-09-19T04:22:29;17.33;;;7.87;;
9160;SDS011;4615;51.340;8.288;2022-09-19T04:24:56;13.83;;;6.87;;
9160;SDS011;4615;51.340;8.288;2022-09-19T04:27:22;18.33;;;8.27;;
9160;SDS011;4615;51.340;8.288;2022-09-19T04:29:48;16.93;;;7.63;;
9160;SDS011;4615;51.340;8.288;2022-09-19T04:32:16;15.03;;;7.43;;
9160;SDS011;4615;51.340;8.288;2022-09-19T04:34:42;16.30;;;6.40;;
9160;SDS011;4615;51.340;8.288;2022-09-19T04:37:09;14.63;;;7.73;;
9160;SDS011;4615;51.340;8.288;2022-09-19T04:39:37;16.23;;;7.03;;
9160;SDS011;4615;51.340;8.288;2022-09-19T04:42:03;15.33;;;6.77;;
9160;SDS011;4615;51.340;8.288;2022-09-19T04:44:30;21.00;;;7.00;;
9160;SDS011;4615;51.340;8.288;2022-09-19T04:46:56;19.07;;;7.10;;
9160;SDS011;4615;51.340;8.288;2022-09-19T04:49:24;14.97;;;7.10;;
9160;SDS011;4615;51.340;8.288;2022-09-19T04:52:00;15.87;;;6.50;;
9160;SDS011;4615;51.340;8.288;2022-09-19T04:54:26;13.10;;;7.10;;
9160;SDS011;4615;51.340;8.288;2022-09-19T04:56:52;13.00;;;6.67;;
9160;SDS011;4615;51.340;8.288;2022-09-19T04:59:19;11.23;;;6.43;;
9160;SDS011;4615;51.340;8.288;2022-09-19T05:01:46;14.70;;;6.60;;
9160;SDS011;4615;51.340;8.288;2022-09-19T05:04:12;17.83;;;7.73;;
9160;SDS011;4615;51.340;8.288;2022-09-19T05:06:43;19.33;;;7.90;;
9160;SDS011;4615;51.340;8.288;2022-09-19T05:09:09;21.67;;;8.50;;
9160;SDS011;4615;51.340;8.288;2022-09-19T05:11:36;19.10;;;7.10;;
9160;SDS011;4615;51.340;8.288;2022-09-19T05:14:05;14.87;;;7.40;;
9160;SDS011;4615;51.340;8.288;2022-09-19T05:16:34;18.80;;;7.87;;
9160;SDS011;4615;51.340;8.288;2022-09-19T05:19:01;15.57;;;8.07;;
9160;SDS011;4615;51.340;8.288;2022-09-19T05:21:27;17.53;;;8.50;;
9160;SDS011;4615;51.340;8.288;2022-09-19T05:23:55;20.33;;;8.87;;
9160;SDS011;4615;51.340;8.288;2022-09-19T05:26:21;23.90;;;9.43;;
9160;SDS011;4615;51.340;8.288;2022-09-19T05:28:48;21.37;;;8.43;;
9160;SDS011;4615;51.340;8.288;2022-09-19T05:31:15;13.90;;;8.43;;
9160;SDS011;4615;51.340;8.288;2022-09-19T05:33:43;13.93;;;8.87;;
9160;SDS011;4615;51.340;8.288;2022-09-19T05:36:10;17.70;;;8.67;;
9160;SDS011;4615;51.340;8.288;2022-09-19T05:38:36;20.50;;;8.87;;
9160;SDS011;4615;51.340;8.288;2022-09-19T05:41:04;24.47;;;9.73;;
9160;SDS011;4615;51.340;8.288;2022-09-19T05:43:31;18.60;;;8.63;;
9160;SDS011;4615;51.340;8.288;2022-09-19T05:45:58;20.30;;;8.53;;
9160;SDS011;4615;51.340;8.288;2022-09-19T05:48:25;20.23;;;8.57;;
9160;SDS011;4615;51.340;8.288;2022-09-19T05:50:52;18.10;;;9.17;;
9160;SDS011;4615;51.340;8.288;2022-09-19T05:53:19;16.40;;;8.73;;
9160;SDS011;4615;51.340;8.288;2022-09-19T05:56:05;18.77;;;8.67;;
9160;SDS011;4615;51.340;8.288;2022-09-19T05:58:31;15.07;;;8.10;;
9160;SDS011;4615;51.340;8.288;2022-09-19T06:01:01;18.80;;;8.50;;
9160;SDS011;4615;51.340;8.288;2022-09-19T06:03:28;18.20;;;8.60;;
9160;SDS011;4615;51.340;8.288;2022-09-19T06:05:54;14.30;;;8.30;;
9160;SDS011;4615;51.340;8.288;2022-09-19T06:08:21;18.37;;;7.90;;
9160;SDS011;4615;51.340;8.288;2022-09-19T06:10:48;18.63;;;8.63;;
9160;SDS011;4615;51.340;8.288;2022-09-19T06:13:16;11.73;;;7.50;;
9160;SDS011;4615;51.340;8.288;2022-09-19T06:15:43;11.10;;;6.53;;
9160;SDS011;4615;51.340;8.288;2022-09-19T06:18:09;14.27;;;7.70;;
9160;SDS011;4615;51.340;8.288;2022-09-19T06:20:37;14.37;;;7.17;;
9160;SDS011;4615;51.340;8.288;2022-09-19T06:23:03;12.60;;;6.43;;
9160;SDS011;4615;51.340;8.288;2022-09-19T06:25:31;8.30;;;5.70;;
9160;SDS011;4615;51.340;8.288;2022-09-19T06:27:58;10.10;;;5.70;;
9160;SDS011;4615;51.340;8.288;2022-09-19T06:30:26;7.80;;;5.13;;
9160;SDS011;4615;51.340;8.288;2022-09-19T06:32:53;9.20;;;5.93;;
9160;SDS011;4615;51.340;8.288;2022-09-19T06:35:20;6.90;;;4.53;;
9160;SDS011;4615;51.340;8.288;2022-09-19T06:37:47;9.40;;;4.60;;
9160;SDS011;4615;51.340;8.288;2022-09-19T06:40:14;9.63;;;5.33;;
9160;SDS011;4615;51.340;8.288;2022-09-19T06:42:40;11.13;;;6.30;;
9160;SDS011;4615;51.340;8.288;2022-09-19T06:45:07;14.40;;;7.23;;
9160;SDS011;4615;51.340;8.288;2022-09-19T06:47:35;17.00;;;8.90;;
9160;SDS011;4615;51.340;8.288;2022-09-19T06:50:01;19.57;;;9.83;;
9160;SDS011;4615;51.340;8.288;2022-09-19T06:52:28;20.70;;;10.77;;
9160;SDS011;4615;51.340;8.288;2022-09-19T06:54:54;18.33;;;10.37;;
9160;SDS011;4615;51.340;8.288;2022-09-19T06:57:23;18.00;;;9.10;;
9160;SDS011;4615;51.340;8.288;2022-09-19T06:59:49;21.80;;;10.33;;
9160;SDS011;4615;51.340;8.288;2022-09-19T07:02:16;17.13;;;9.70;;
9160;SDS011;4615;51.340;8.288;2022-09-19T07:04:44;15.53;;;8.53;;
9160;SDS011;4615;51.340;8.288;2022-09-19T07:07:10;13.93;;;8.83;;
9160;SDS011;4615;51.340;8.288;2022-09-19T07:09:36;18.63;;;8.60;;
9160;SDS011;4615;51.340;8.288;2022-09-19T07:12:03;16.47;;;8.73;;
9160;SDS011;4615;51.340;8.288;2022-09-19T07:14:29;19.37;;;8.80;;
9160;SDS011;4615;51.340;8.288;2022-09-19T07:16:56;21.00;;;8.67;;
9160;SDS011;4615;51.340;8.288;2022-09-19T07:19:22;20.13;;;8.63;;
9160;SDS011;4615;51.340;8.288;2022-09-19T07:21:52;22.57;;;8.70;;
9160;SDS011;4615;51.340;8.288;2022-09-19T07:24:18;20.90;;;9.43;;
9160;SDS011;4615;51.340;8.288;2022-09-19T07:26:45;20.20;;;9.17;;
9160;SDS011;4615;51.340;8.288;2022-09-19T07:29:11;14.87;;;6.53;;
9160;SDS011;4615;51.340;8.288;2022-09-19T07:31:38;15.43;;;6.50;;
9160;SDS011;4615;51.340;8.288;2022-09-19T07:34:04;13.73;;;6.13;;
9160;SDS011;4615;51.340;8.288;2022-09-19T07:36:30;12.53;;;6.17;;
9160;SDS011;4615;51.340;8.288;2022-09-19T07:38:58;15.23;;;6.33;;
9160;SDS011;4615;51.340;8.288;2022-09-19T07:41:25;17.83;;;5.83;;
9160;SDS011;4615;51.340;8.288;2022-09-19T07:43:51;11.80;;;5.33;;
9160;SDS011;4615;51.340;8.288;2022-09-19T07:46:17;14.70;;;6.90;;
9160;SDS011;4615;51.340;8.288;2022-09-19T07:48:47;20.70;;;6.13;;
9160;SDS011;4615;51.340;8.288;2022-09-19T07:51:13;17.33;;;6.27;;
9160;SDS011;4615;51.340;8.288;2022-09-19T07:53:40;13.67;;;6.20;;
9160;SDS011;4615;51.340;8.288;2022-09-19T07:56:09;15.63;;;6.57;;
9160;SDS011;4615;51.340;8.288;2022-09-19T07:58:36;15.70;;;6.40;;
9160;SDS011;4615;51.340;8.288;2022-09-19T08:01:02;17.53;;;7.20;;
9160;SDS011;4615;51.340;8.288;2022-09-19T08:03:29;16.60;;;6.10;;
9160;SDS011;4615;51.340;8.288;2022-09-19T08:05:58;18.90;;;6.43;;
9160;SDS011;4615;51.340;8.288;2022-09-19T08:08:24;11.07;;;5.50;;
9160;SDS011;4615;51.340;8.288;2022-09-19T08:10:51;13.13;;;5.10;;
9160;SDS011;4615;51.340;8.288;2022-09-19T08:13:19;12.93;;;5.57;;
9160;SDS011;4615;51.340;8.288;2022-09-19T08:15:46;12.00;;;6.30;;
9160;SDS011;4615;51.340;8.288;2022-09-19T08:18:14;13.67;;;5.80;;
9160;SDS011;4615;51.340;8.288;2022-09-19T08:20:41;11.40;;;5.43;;
9160;SDS011;4615;51.340;8.288;2022-09-19T08:23:08;9.97;;;4.57;;
9160;SDS011;4615;51.340;8.288;2022-09-19T08:25:35;9.43;;;4.53;;
9160;SDS011;4615;51.340;8.288;2022-09-19T08:28:03;8.97;;;4.53;;
9160;SDS011;4615;51.340;8.288;2022-09-19T08:30:32;9.73;;;4.43;;
9160;SDS011;4615;51.340;8.288;2022-09-19T08:32:59;9.83;;;5.77;;
9160;SDS011;4615;51.340;8.288;2022-09-19T08:35:27;9.40;;;5.13;;
9160;SDS011;4615;51.340;8.288;2022-09-19T08:37:54;14.23;;;6.27;;
9160;SDS011;4615;51.340;8.288;2022-09-19T08:40:23;13.60;;;5.93;;
9160;SDS011;4615;51.340;8.288;2022-09-19T08:42:58;14.50;;;5.57;;
9160;SDS011;4615;51.340;8.288;2022-09-19T08:45:27;13.13;;;5.53;;
9160;SDS011;4615;51.340;8.288;2022-09-19T08:48:03;15.67;;;7.20;;
9160;SDS011;4615;51.340;8.288;2022-09-19T08:50:32;11.83;;;6.43;;
9160;SDS011;4615;51.340;8.288;2022-09-19T08:53:00;17.53;;;7.63;;
9160;SDS011;4615;51.340;8.288;2022-09-19T08:55:28;20.97;;;8.43;;
9160;SDS011;4615;51.340;8.288;2022-09-19T08:57:56;13.17;;;6.67;;
9160;SDS011;4615;51.340;8.288;2022-09-19T09:00:24;13.50;;;6.87;;
9160;SDS011;4615;51.340;8.288;2022-09-19T09:02:52;17.80;;;7.10;;
9160;SDS011;4615;51.340;8.288;2022-09-19T09:05:22;18.83;;;6.57;;
9160;SDS011;4615;51.340;8.288;2022-09-19T09:07:54;11.90;;;6.00;;
9160;SDS011;4615;51.340;8.288;2022-09-19T09:10:27;11.87;;;5.53;;
9160;SDS011;4615;51.340;8.288;2022-09-19T09:13:00;11.07;;;5.20;;
9160;SDS011;4615;51.340;8.288;2022-09-19T09:15:36;12.83;;;6.50;;
9160;SDS011;4615;51.340;8.288;2022-09-19T09:18:10;10.97;;;5.43;;
9160;SDS011;4615;51.340;8.288;2022-09-19T09:20:44;14.77;;;5.40;;
9160;SDS011;4615;51.340;8.288;2022-09-19T09:23:14;15.13;;;5.37;;
9160;SDS011;4615;51.340;8.288;2022-09-19T09:25:43;12.53;;;5.43;;
9160;SDS011;4615;51.340;8.288;2022-09-19T09:28:11;11.87;;;4.13;;
9160;SDS011;4615;51.340;8.288;2022-09-19T09:30:40;10.20;;;4.90;;
9160;SDS011;4615;51.340;8.288;2022-09-19T09:33:12;13.53;;;5.17;;
9160;SDS011;4615;51.340;8.288;2022-09-19T09:35:43;16.47;;;4.80;;
9160;SDS011;4615;51.340;8.288;2022-09-19T09:38:14;11.60;;;4.93;;
9160;SDS011;4615;51.340;8.288;2022-09-19T09:40:44;8.50;;;4.60;;
9160;SDS011;4615;51.340;8.288;2022-09-19T09:43:33;13.07;;;4.07;;
9160;SDS011;4615;51.340;8.288;2022-09-19T09:46:07;9.93;;;4.37;;
9160;SDS011;4615;51.340;8.288;2022-09-19T09:48:37;11.83;;;4.60;;
9160;SDS011;4615;51.340;8.288;2022-09-19T09:51:12;14.43;;;3.93;;
9160;SDS011;4615;51.340;8.288;2022-09-19T09:53:48;11.60;;;4.17;;
9160;SDS011;4615;51.340;8.288;2022-09-19T09:56:17;10.07;;;3.40;;
9160;SDS011;4615;51.340;8.288;2022-09-19T09:58:48;10.07;;;4.47;;
9160;SDS011;4615;51.340;8.288;2022-09-19T10:01:24;13.37;;;5.07;;
9160;SDS011;4615;51.340;8.288;2022-09-19T10:04:11;11.80;;;4.20;;
9160;SDS011;4615;51.340;8.288;2022-09-19T10:06:43;12.63;;;5.40;;
9160;SDS011;4615;51.340;8.288;2022-09-19T10:09:12;11.17;;;4.43;;
9160;SDS011;4615;51.340;8.288;2022-09-19T10:11:41;11.27;;;4.90;;
9160;SDS011;4615;51.340;8.288;2022-09-19T10:14:11;14.27;;;4.40;;
9160;SDS011;4615;51.340;8.288;2022-09-19T10:16:43;13.53;;;4.40;;
9160;SDS011;4615;51.340;8.288;2022-09-19T10:19:14;9.60;;;3.83;;
9160;SDS011;4615;51.340;8.288;2022-09-19T10:21:47;14.70;;;4.53;;
9160;SDS011;4615;51.340;8.288;2022-09-19T10:26:59;14.27;;;4.93;;
9160;SDS011;4615;51.340;8.288;2022-09-19T10:29:25;12.40;;;4.40;;
9160;SDS011;4615;51.340;8.288;2022-09-19T10:31:52;11.37;;;4.07;;
9160;SDS011;4615;51.340;8.288;2022-09-19T10:34:23;8.10;;;3.90;;
9160;SDS011;4615;51.340;8.288;2022-09-19T10:36:53;10.07;;;3.73;;
9160;SDS011;4615;51.340;8.288;2022-09-19T10:39:22;10.60;;;3.60;;
9160;SDS011;4615;51.340;8.288;2022-09-19T10:41:48;9.37;;;3.93;;
9160;SDS011;4615;51.340;8.288;2022-09-19T10:44:16;13.90;;;4.27;;
9160;SDS011;4615;51.340;8.288;2022-09-19T10:46:44;10.23;;;3.53;;
9160;SDS011;4615;51.340;8.288;2022-09-19T10:49:15;10.17;;;3.33;;
9160;SDS011;4615;51.340;8.288;2022-09-19T10:51:44;12.53;;;3.30;;
9160;SDS011;4615;51.340;8.288;2022-09-19T10:54:20;10.97;;;3.37;;
9160;SDS011;4615;51.340;8.288;2022-09-19T10:56:47;10.80;;;3.27;;
9160;SDS011;4615;51.340;8.288;2022-09-19T10:59:18;8.77;;;3.10;;
9160;SDS011;4615;51.340;8.288;2022-09-19T11:02:03;10.90;;;3.10;;
9160;SDS011;4615;51.340;8.288;2022-09-19T11:04:29;6.70;;;2.90;;
9160;SDS011;4615;51.340;8.288;2022-09-19T11:06:56;6.80;;;3.17;;
9160;SDS011;4615;51.340;8.288;2022-09-19T11:09:26;10.50;;;3.40;;
9160;SDS011;4615;51.340;8.288;2022-09-19T11:11:54;10.40;;;3.93;;
9160;SDS011;4615;51.340;8.288;2022-09-19T11:14:28;5.57;;;2.27;;
9160;SDS011;4615;51.340;8.288;2022-09-19T11:17:02;6.57;;;2.20;;
9160;SDS011;4615;51.340;8.288;2022-09-19T11:19:35;6.60;;;2.47;;
9160;SDS011;4615;51.340;8.288;2022-09-19T11:22:06;12.43;;;2.63;;
9160;SDS011;4615;51.340;8.288;2022-09-19T11:24:48;7.43;;;2.50;;
9160;SDS011;4615;51.340;8.288;2022-09-19T11:27:31;8.17;;;2.23;;
9160;SDS011;4615;51.340;8.288;2022-09-19T11:30:05;6.33;;;2.73;;
9160;SDS011;4615;51.340;8.288;2022-09-19T11:32:44;5.90;;;2.37;;
9160;SDS011;4615;51.340;8.288;2022-09-19T11:35:21;15.23;;;2.57;;
9160;SDS011;4615;51.340;8.288;2022-09-19T11:37:51;6.57;;;2.40;;
9160;SDS011;4615;51.340;8.288;2022-09-19T11:40:25;6.60;;;2.37;;
9160;SDS011;4615;51.340;8.288;2022-09-19T11:42:58;7.40;;;2.17;;
9160;SDS011;4615;51.340;8.288;2022-09-19T11:45:26;8.47;;;2.50;;
9160;SDS011;4615;51.340;8.288;2022-09-19T11:47:59;7.83;;;2.70;;
9160;SDS011;4615;51.340;8.288;2022-09-19T11:50:29;7.57;;;2.30;;
9160;SDS011;4615;51.340;8.288;2022-09-19T11:53:05;8.93;;;2.83;;
9160;SDS011;4615;51.340;8.288;2022-09-19T11:55:38;7.57;;;2.30;;
9160;SDS011;4615;51.340;8.288;2022-09-19T11:58:09;7.40;;;2.53;;
9160;SDS011;4615;51.340;8.288;2022-09-19T12:00:43;8.80;;;2.93;;
9160;SDS011;4615;51.340;8.288;2022-09-19T12:03:18;11.27;;;2.77;;
9160;SDS011;4615;51.340;8.288;2022-09-19T12:05:50;7.93;;;2.17;;
9160;SDS011;4615;51.340;8.288;2022-09-19T12:08:25;6.07;;;2.30;;
9160;SDS011;4615;51.340;8.288;2022-09-19T12:10:55;9.17;;;2.90;;
9160;SDS011;4615;51.340;8.288;2022-09-19T12:13:24;8.30;;;2.30;;
9160;SDS011;4615;51.340;8.288;2022-09-19T12:15:52;10.50;;;2.40;;
9160;SDS011;4615;51.340;8.288;2022-09-19T12:18:20;5.50;;;2.20;;
9160;SDS011;4615;51.340;8.288;2022-09-19T12:20:48;6.93;;;1.90;;
9160;SDS011;4615;51.340;8.288;2022-09-19T12:23:16;7.83;;;2.00;;
9160;SDS011;4615;51.340;8.288;2022-09-19T12:26:04;9.40;;;2.23;;
9160;SDS011;4615;51.340;8.288;2022-09-19T12:28:32;6.87;;;2.10;;
9160;SDS011;4615;51.340;8.288;2022-09-19T12:31:00;6.57;;;1.97;;
9160;SDS011;4615;51.340;8.288;2022-09-19T12:33:29;5.00;;;1.70;;
9160;SDS011;4615;51.340;8.288;2022-09-19T12:35:58;5.97;;;1.83;;
9160;SDS011;4615;51.340;8.288;2022-09-19T12:38:30;7.83;;;2.10;;
9160;SDS011;4615;51.340;8.288;2022-09-19T12:41:00;8.03;;;1.80;;
9160;SDS011;4615;51.340;8.288;2022-09-19T12:43:34;4.73;;;1.40;;
9160;SDS011;4615;51.340;8.288;2022-09-19T12:46:05;5.50;;;1.87;;
9160;SDS011;4615;51.340;8.288;2022-09-19T12:48:38;6.87;;;1.80;;
9160;SDS011;4615;51.340;8.288;2022-09-19T12:51:08;5.40;;;2.00;;
9160;SDS011;4615;51.340;8.288;2022-09-19T12:53:37;2.57;;;1.50;;
9160;SDS011;4615;51.340;8.288;2022-09-19T12:56:05;6.00;;;1.77;;
9160;SDS011;4615;51.340;8.288;2022-09-19T12:58:38;4.60;;;1.70;;
9160;SDS011;4615;51.340;8.288;2022-09-19T13:01:14;4.43;;;1.80;;
9160;SDS011;4615;51.340;8.288;2022-09-19T13:03:43;4.77;;;1.60;;
9160;SDS011;4615;51.340;8.288;2022-09-19T13:06:11;4.63;;;1.47;;
9160;SDS011;4615;51.340;8.288;2022-09-19T13:08:40;3.63;;;1.03;;
9160;SDS011;4615;51.340;8.288;2022-09-19T13:11:11;2.40;;;1.20;;
9160;SDS011;4615;51.340;8.288;2022-09-19T13:13:41;3.60;;;1.60;;
9160;SDS011;4615;51.340;8.288;2022-09-19T13:16:13;2.43;;;0.93;;
9160;SDS011;4615;51.340;8.288;2022-09-19T13:18:42;1.33;;;0.80;;
9160;SDS011;4615;51.340;8.288;2022-09-19T13:21:33;1.53;;;1.10;;
9160;SDS011;4615;51.340;8.288;2022-09-19T13:24:17;0.87;;;0.87;;
9160;SDS011;4615;51.340;8.288;2022-09-19T13:26:43;1.03;;;0.80;;
9160;SDS011;4615;51.340;8.288;2022-09-19T13:32:01;2.10;;;1.03;;
9160;SDS011;4615;51.340;8.288;2022-09-19T13:34:36;2.20;;;0.90;;
9160;SDS011;4615;51.340;8.288;2022-09-19T13:39:46;1.60;;;1.00;;
9160;SDS011;4615;51.340;8.288;2022-09-19T13:42:20;1.27;;;0.90;;
9160;SDS011;4615;51.340;8.288;2022-09-19T13:44:53;0.80;;;0.80;;
9160;SDS011;4615;51.340;8.288;2022-09-19T13:47:28;1.57;;;1.10;;
9160;SDS011;4615;51.340;8.288;2022-09-19T13:50:01;2.77;;;1.43;;
9160;SDS011;4615;51.340;8.288;2022-09-19T13:52:30;1.80;;;1.10;;
9160;SDS011;4615;51.340;8.288;2022-09-19T13:54:59;1.13;;;1.00;;
9160;SDS011;4615;51.340;8.288;2022-09-19T13:57:28;2.10;;;1.00;;
9160;SDS011;4615;51.340;8.288;2022-09-19T13:59:57;1.43;;;1.00;;
9160;SDS011;4615;51.340;8.288;2022-09-19T14:02:26;3.90;;;1.40;;
9160;SDS011;4615;51.340;8.288;2022-09-19T14:05:03;6.00;;;1.73;;
9160;SDS011;4615;51.340;8.288;2022-09-19T14:07:33;3.13;;;1.63;;
9160;SDS011;4615;51.340;8.288;2022-09-19T14:10:03;2.80;;;1.33;;
9160;SDS011;4615;51.340;8.288;2022-09-19T14:12:47;2.93;;;1.27;;
9160;SDS011;4615;51.340;8.288;2022-09-19T14:20:46;5.00;;;1.40;;
9160;SDS011;4615;51.340;8.288;2022-09-19T14:23:13;3.13;;;1.30;;
9160;SDS011;4615;51.340;8.288;2022-09-19T14:25:40;3.60;;;1.50;;
9160;SDS011;4615;51.340;8.288;2022-09-19T14:28:22;3.73;;;1.43;;
9160;SDS011;4615;51.340;8.288;2022-09-19T14:30:58;3.10;;;1.23;;
9160;SDS011;4615;51.340;8.288;2022-09-19T14:33:47;6.50;;;2.10;;
9160;SDS011;4615;51.340;8.288;2022-09-19T14:36:21;3.13;;;1.40;;
9160;SDS011;4615;51.340;8.288;2022-09-19T14:39:03;2.90;;;1.63;;
9160;SDS011;4615;51.340;8.288;2022-09-19T14:41:38;5.27;;;1.33;;
9160;SDS011;4615;51.340;8.288;2022-09-19T14:46:56;2.70;;;1.40;;
9160;SDS011;4615;51.340;8.288;2022-09-19T14:49:25;3.77;;;1.40;;
9160;SDS011;4615;51.340;8.288;2022-09-19T14:51:57;4.70;;;1.80;;
9160;SDS011;4615;51.340;8.288;2022-09-19T14:54:28;4.33;;;1.37;;
9160;SDS011;4615;51.340;8.288;2022-09-19T14:56:56;2.63;;;1.57;;
9160;SDS011;4615;51.340;8.288;2022-09-19T14:59:24;4.30;;;1.40;;
9160;SDS011;4615;51.340;8.288;2022-09-19T15:01:52;4.73;;;1.53;;
9160;SDS011;4615;51.340;8.288;2022-09-19T15:04:20;1.87;;;1.00;;
9160;SDS011;4615;51.340;8.288;2022-09-19T15:06:49;4.57;;;1.30;;
9160;SDS011;4615;51.340;8.288;2022-09-19T15:09:19;4.10;;;1.60;;
9160;SDS011;4615;51.340;8.288;2022-09-19T15:11:47;5.10;;;1.73;;
9160;SDS011;4615;51.340;8.288;2022-09-19T15:14:13;5.77;;;1.63;;
9160;SDS011;4615;51.340;8.288;2022-09-19T15:16:41;2.80;;;1.50;;
9160;SDS011;4615;51.340;8.288;2022-09-19T15:19:07;2.40;;;1.30;;
9160;SDS011;4615;51.340;8.288;2022-09-19T15:21:35;4.03;;;1.70;;
9160;SDS011;4615;51.340;8.288;2022-09-19T15:24:02;2.60;;;1.40;;
9160;SDS011;4615;51.340;8.288;2022-09-19T15:26:34;4.07;;;2.00;;
9160;SDS011;4615;51.340;8.288;2022-09-19T15:29:03;4.13;;;1.40;;
9160;SDS011;4615;51.340;8.288;2022-09-19T15:31:33;3.40;;;1.60;;
9160;SDS011;4615;51.340;8.288;2022-09-19T15:34:01;4.20;;;1.47;;
9160;SDS011;4615;51.340;8.288;2022-09-19T15:36:28;3.23;;;1.57;;
9160;SDS011;4615;51.340;8.288;2022-09-19T15:38:56;3.73;;;1.90;;